createdAt,value
2023-05-02T00:01:54.753Z,1
2023-05-02T00:03:54.171Z,1
2023-05-02T00:05:54.271Z,1
2023-05-02T00:07:57.948Z,1
2023-05-02T00:09:54.915Z,1
2023-05-02T00:11:54.202Z,1
2023-05-02T00:13:54.166Z,1
2023-05-02T00:15:57.998Z,1
2023-05-02T00:17:54.313Z,1
2023-05-02T00:20:01.312Z,1
2023-05-02T00:21:54.214Z,1
2023-05-02T00:23:54.886Z,1
2023-05-02T00:25:54.185Z,1
2023-05-02T00:27:54.690Z,1
2023-05-02T00:30:01.263Z,1
2023-05-02T00:31:54.724Z,1
2023-05-02T00:33:54.172Z,1
2023-05-02T00:35:54.196Z,1
2023-05-02T00:37:54.230Z,1
2023-05-02T00:39:54.845Z,1
2023-05-02T00:41:54.228Z,1
2023-05-02T00:43:54.183Z,1
2023-05-02T00:47:54.286Z,1
2023-05-02T00:49:54.673Z,1
2023-05-02T00:52:01.206Z,1
2023-05-02T00:53:54.170Z,1
2023-05-02T00:55:54.177Z,1
2023-05-02T00:57:54.177Z,1
2023-05-02T00:59:54.151Z,1
2023-05-02T01:01:54.181Z,1
2023-05-02T01:03:54.329Z,1
2023-05-02T01:05:54.142Z,1
2023-05-02T01:07:54.309Z,1
2023-05-02T01:09:54.234Z,1
2023-05-02T01:11:54.181Z,1
2023-05-02T01:13:54.658Z,1
2023-05-02T01:15:57.936Z,1
2023-05-02T01:17:54.207Z,1
2023-05-02T01:19:58.005Z,1
2023-05-02T01:21:54.272Z,1
2023-05-02T01:23:54.181Z,1
2023-05-02T01:25:54.608Z,1
2023-05-02T01:27:54.216Z,1
2023-05-02T01:29:54.222Z,1
2023-05-02T01:31:57.973Z,1
2023-05-02T01:35:57.594Z,1
2023-05-02T01:37:54.179Z,1
2023-05-02T01:39:54.143Z,1
2023-05-02T01:42:00.974Z,1
2023-05-02T01:43:54.792Z,1
2023-05-02T01:45:54.724Z,1
2023-05-02T01:47:57.912Z,1
2023-05-02T01:49:58.006Z,1
2023-05-02T01:51:54.716Z,1
2023-05-02T01:53:54.262Z,1
2023-05-02T01:55:57.908Z,1
2023-05-02T01:57:57.446Z,1
2023-05-02T01:59:54.649Z,1
2023-05-02T02:01:54.189Z,1
2023-05-02T02:03:57.876Z,1
2023-05-02T02:05:54.668Z,1
2023-05-02T02:08:01.191Z,1
2023-05-02T02:09:57.538Z,1
2023-05-02T02:11:54.366Z,1
2023-05-02T02:15:54.681Z,1
2023-05-02T02:17:54.677Z,1
2023-05-02T02:19:54.430Z,1
2023-05-02T02:21:54.360Z,1
2023-05-02T02:23:54.404Z,1
2023-05-02T02:25:54.569Z,1
2023-05-02T02:28:01.073Z,1
2023-05-02T02:29:57.956Z,1
2023-05-02T02:31:54.757Z,1
2023-05-02T02:33:54.303Z,1
2023-05-02T02:35:54.282Z,1
2023-05-02T02:37:54.321Z,1
2023-05-02T02:39:58.148Z,1
2023-05-02T02:41:54.216Z,1
2023-05-02T02:43:54.210Z,1
2023-05-02T02:45:57.771Z,1
2023-05-02T02:47:54.717Z,1
2023-05-02T02:49:54.134Z,1
2023-05-02T02:51:54.502Z,1
2023-05-02T02:53:54.150Z,1
2023-05-02T02:55:54.679Z,1
2023-05-02T02:58:00.566Z,1
2023-05-02T02:59:54.151Z,1
2023-05-02T03:01:54.751Z,1
2023-05-02T03:04:00.999Z,0
2023-05-02T03:05:54.766Z,0
2023-05-02T03:07:54.265Z,0
2023-05-02T03:09:54.662Z,0
2023-05-02T03:11:54.345Z,0
2023-05-02T03:13:54.241Z,0.1
2023-05-02T03:15:58.012Z,0.2
2023-05-02T03:17:57.862Z,0.2
2023-05-02T03:19:54.338Z,0.3
2023-05-02T03:21:54.826Z,0.4
2023-05-02T03:23:54.781Z,0.5
2023-05-02T03:27:54.397Z,1
2023-05-02T03:29:54.219Z,1.3
2023-05-02T03:31:54.292Z,2
2023-05-02T03:34:01.034Z,2.9
2023-05-02T03:35:54.815Z,3.9
2023-05-02T03:37:54.614Z,5.5
2023-05-02T03:39:54.228Z,7.8
2023-05-02T03:41:54.284Z,10.5
2023-05-02T03:43:54.297Z,14.2
2023-05-02T03:45:57.942Z,19.1
2023-05-02T03:48:01.342Z,24.5
2023-05-02T03:49:54.851Z,30
2023-05-02T03:51:54.832Z,38.5
2023-05-02T03:53:54.260Z,47
2023-05-02T03:55:54.241Z,54.6
2023-05-02T03:57:54.282Z,66.7
2023-05-02T03:59:58.123Z,77.5
2023-05-02T04:01:54.750Z,90
2023-05-02T04:03:54.296Z,109.9
2023-05-02T04:05:54.305Z,127.7
2023-05-02T04:07:54.888Z,148.4
2023-05-02T04:09:54.824Z,164
2023-05-02T04:11:54.755Z,190.6
2023-05-02T04:13:54.288Z,210.6
2023-05-02T04:15:58.171Z,244.7
2023-05-02T04:17:54.763Z,270.4
2023-05-02T04:19:54.344Z,298.9
2023-05-02T04:21:54.400Z,330.3
2023-05-02T04:23:54.312Z,365
2023-05-02T04:26:01.336Z,403.4
2023-05-02T04:27:54.395Z,445.9
2023-05-02T04:29:58.118Z,492.7
2023-05-02T04:31:54.440Z,518
2023-05-02T04:34:01.102Z,572.5
2023-05-02T04:35:54.277Z,601.8
2023-05-02T04:37:54.603Z,632.7
2023-05-02T04:39:58.337Z,665.1
2023-05-02T04:43:54.270Z,699.2
2023-05-02T04:45:54.794Z,735.1
2023-05-02T04:48:01.392Z,772.8
2023-05-02T04:49:58.357Z,812.4
2023-05-02T04:51:54.746Z,812.4
2023-05-02T04:53:54.242Z,854.1
2023-05-02T04:55:57.980Z,897.8
2023-05-02T04:57:58.024Z,943.9
2023-05-02T04:59:54.959Z,1096.6
2023-05-02T05:01:54.439Z,1096.6
2023-05-02T05:03:58.159Z,1152.9
2023-05-02T05:05:54.292Z,1212
2023-05-02T05:07:54.727Z,1274.1
2023-05-02T05:09:54.752Z,1339.4
2023-05-02T05:14:01.081Z,1480.3
2023-05-02T05:15:57.539Z,1556.2
2023-05-02T05:17:58.089Z,1636
2023-05-02T05:19:54.812Z,1719.9
2023-05-02T05:21:54.781Z,1808
2023-05-02T05:23:54.753Z,1808
2023-05-02T05:25:54.286Z,1808
2023-05-02T05:27:54.900Z,1808
2023-05-02T05:29:54.674Z,1900.7
2023-05-02T05:31:54.378Z,1900.7
2023-05-02T05:33:54.909Z,1998.2
2023-05-02T05:35:58.142Z,2100.6
2023-05-02T05:37:54.823Z,2100.6
2023-05-02T05:40:01.381Z,2100.6
2023-05-02T05:41:54.921Z,2208.3
2023-05-02T05:43:54.556Z,2321.6
2023-05-02T05:45:57.964Z,2440.6
2023-05-02T05:47:57.462Z,2565.7
2023-05-02T05:49:54.258Z,2565.7
2023-05-02T05:51:58.008Z,2697.3
2023-05-02T05:53:54.914Z,2697.3
2023-05-02T05:55:54.335Z,2835.6
2023-05-02T05:57:54.543Z,2835.6
2023-05-02T05:59:54.448Z,2981
2023-05-02T06:01:54.332Z,3133.8
2023-05-02T06:03:54.353Z,3294.5
2023-05-02T06:05:54.362Z,3294.5
2023-05-02T06:07:54.456Z,3294.5
2023-05-02T06:09:54.846Z,3463.4
2023-05-02T06:11:54.403Z,3641
2023-05-02T06:13:54.434Z,3827.6
2023-05-02T06:15:54.875Z,3827.6
2023-05-02T06:18:01.180Z,4023.9
2023-05-02T06:19:54.800Z,4230.2
2023-05-02T06:21:54.309Z,4914.8
2023-05-02T06:23:54.848Z,5710.1
2023-05-02T06:25:54.346Z,5710.1
2023-05-02T06:27:54.271Z,6310.7
2023-05-02T06:29:54.771Z,6634.2
2023-05-02T06:31:54.497Z,5431.7
2023-05-02T06:33:54.854Z,6974.4
2023-05-02T06:35:59.248Z,5710.1
2023-05-02T06:37:55.506Z,8103.1
2023-05-02T06:39:54.370Z,8518.5
2023-05-02T06:41:54.679Z,9414.4
2023-05-02T06:43:58.036Z,9414.4
2023-05-02T06:45:54.448Z,9897.1
2023-05-02T06:47:54.508Z,8955.3
2023-05-02T06:49:54.313Z,9897.1
2023-05-02T06:51:55.311Z,8103.1
2023-05-02T06:53:57.480Z,6974.4
2023-05-02T06:55:54.492Z,7332
2023-05-02T06:57:54.436Z,7332
2023-05-02T06:59:54.336Z,7332
2023-05-02T07:01:54.376Z,7332
2023-05-02T07:03:55.228Z,6974.4
2023-05-02T07:05:54.330Z,6634.2
2023-05-02T07:07:54.757Z,6310.7
2023-05-02T07:09:54.278Z,6310.7
2023-05-02T07:11:58.031Z,6634.2
2023-05-02T07:15:54.315Z,6634.2
2023-05-02T07:17:54.309Z,6974.4
2023-05-02T07:19:54.362Z,6974.4
2023-05-02T07:21:54.318Z,7332
2023-05-02T07:23:57.448Z,7332
2023-05-02T07:25:54.307Z,6974.4
2023-05-02T07:29:54.256Z,6974.4
2023-05-02T07:31:54.309Z,6634.2
2023-05-02T07:33:54.299Z,6310.7
2023-05-02T07:35:54.479Z,6634.2
2023-05-02T07:37:54.339Z,6634.2
2023-05-02T07:39:54.331Z,6634.2
2023-05-02T07:41:54.316Z,7332
2023-05-02T07:43:54.359Z,6974.4
2023-05-02T07:45:54.405Z,6634.2
2023-05-02T07:47:57.611Z,6974.4
2023-05-02T07:49:54.281Z,6974.4
2023-05-02T07:51:54.325Z,6974.4
2023-05-02T07:53:54.310Z,7332
2023-05-02T07:55:57.529Z,7332
2023-05-02T07:57:54.270Z,6974.4
2023-05-02T07:59:54.281Z,6310.7
2023-05-02T08:01:54.317Z,6002.9
2023-05-02T08:03:58.260Z,6634.2
2023-05-02T08:08:01.124Z,6974.4
2023-05-02T08:09:54.284Z,6634.2
2023-05-02T08:13:54.303Z,6974.4
2023-05-02T08:15:54.306Z,6974.4
2023-05-02T08:17:57.595Z,7332
2023-05-02T08:21:54.517Z,7332
2023-05-02T08:23:57.472Z,7332
2023-05-02T08:25:57.502Z,7332
2023-05-02T08:27:54.318Z,7707.9
2023-05-02T08:29:54.297Z,8103.1
2023-05-02T08:31:54.362Z,8103.1
2023-05-02T08:33:54.344Z,8518.5
2023-05-02T08:35:57.914Z,8518.5
2023-05-02T08:37:57.475Z,8518.5
2023-05-02T08:39:54.318Z,8518.5
2023-05-02T08:42:01.062Z,8518.5
2023-05-02T08:43:54.296Z,8955.3
2023-05-02T08:45:54.312Z,8955.3
2023-05-02T08:47:54.371Z,9414.4
2023-05-02T08:49:54.296Z,8955.3
2023-05-02T08:51:54.313Z,8955.3
2023-05-02T08:53:54.341Z,8518.5
2023-05-02T08:55:54.334Z,8103.1
2023-05-02T08:57:54.344Z,8103.1
2023-05-02T08:59:54.335Z,8103.1
2023-05-02T09:01:57.474Z,7707.9
2023-05-02T09:03:54.327Z,6974.4
2023-05-02T09:05:54.300Z,7707.9
2023-05-02T09:07:54.591Z,8103.1
2023-05-02T09:09:54.337Z,7707.9
2023-05-02T09:11:54.319Z,8103.1
2023-05-02T09:13:57.603Z,7332
2023-05-02T09:15:58.126Z,7332
2023-05-02T09:17:54.329Z,6634.2
2023-05-02T09:19:54.396Z,6310.7
2023-05-02T09:21:54.395Z,7332
2023-05-02T09:25:54.376Z,6634.2
2023-05-02T09:27:54.438Z,6974.4
2023-05-02T09:29:54.506Z,6634.2
2023-05-02T09:31:58.061Z,7707.9
2023-05-02T09:33:54.407Z,8103.1
2023-05-02T09:35:54.347Z,8955.3
2023-05-02T09:37:54.373Z,10404.6
2023-05-02T09:39:54.461Z,11498.8
2023-05-02T09:41:54.679Z,12088.4
2023-05-02T09:43:54.346Z,12708.2
2023-05-02T09:45:54.434Z,12708.2
2023-05-02T09:47:57.668Z,12708.2
2023-05-02T09:49:54.434Z,12708.2
2023-05-02T09:51:54.350Z,12708.2
2023-05-02T09:53:54.430Z,12088.4
2023-05-02T09:55:54.556Z,12708.2
2023-05-02T09:57:57.586Z,12708.2
2023-05-02T09:59:54.374Z,12708.2
2023-05-02T10:01:54.437Z,12708.2
2023-05-02T10:03:57.653Z,13359.7
2023-05-02T10:05:54.348Z,14044.7
2023-05-02T10:07:57.510Z,14764.8
2023-05-02T10:10:01.130Z,14764.8
2023-05-02T10:11:54.346Z,16317.6
2023-05-02T10:13:54.377Z,16317.6
2023-05-02T10:15:54.387Z,16317.6
2023-05-02T10:17:54.394Z,16317.6
2023-05-02T10:19:57.588Z,17154.2
2023-05-02T10:21:54.338Z,15521.8
2023-05-02T10:23:54.337Z,13359.7
2023-05-02T10:25:54.383Z,12708.2
2023-05-02T10:27:54.382Z,13359.7
2023-05-02T10:29:54.361Z,12088.4
2023-05-02T10:31:54.451Z,12708.2
2023-05-02T10:33:54.440Z,14044.7
2023-05-02T10:35:54.551Z,13359.7
2023-05-02T10:37:54.369Z,12708.2
2023-05-02T10:39:54.327Z,12088.4
2023-05-02T10:41:57.494Z,10938
2023-05-02T10:43:54.392Z,10938
2023-05-02T10:45:54.351Z,12708.2
2023-05-02T10:47:54.575Z,10404.6
2023-05-02T10:49:54.386Z,9897.1
2023-05-02T10:52:01.160Z,12708.2
2023-05-02T10:53:54.363Z,10938
2023-05-02T10:55:54.377Z,12088.4
2023-05-02T10:58:01.175Z,14044.7
2023-05-02T10:59:54.343Z,12088.4
2023-05-02T11:01:54.395Z,12088.4
2023-05-02T11:03:57.653Z,13359.7
2023-05-02T11:05:57.584Z,12708.2
2023-05-02T11:07:54.356Z,12708.2
2023-05-02T11:09:54.406Z,12708.2
2023-05-02T11:11:54.335Z,12088.4
2023-05-02T11:13:54.388Z,11498.8
2023-05-02T11:16:01.280Z,11498.8
2023-05-02T11:17:57.554Z,12088.4
2023-05-02T11:19:54.595Z,12708.2
2023-05-02T11:21:54.327Z,12708.2
2023-05-02T11:23:54.611Z,12708.2
2023-05-02T11:25:54.367Z,14044.7
2023-05-02T11:27:54.357Z,14044.7
2023-05-02T11:29:54.509Z,14044.7
2023-05-02T11:31:57.519Z,14764.8
2023-05-02T11:33:57.553Z,13359.7
2023-05-02T11:35:57.515Z,13359.7
2023-05-02T11:37:54.380Z,13359.7
2023-05-02T11:40:01.183Z,14764.8
2023-05-02T11:41:54.392Z,14764.8
2023-05-02T11:43:57.516Z,14044.7
2023-05-02T11:45:54.384Z,13359.7
2023-05-02T11:47:54.348Z,13359.7
2023-05-02T11:49:54.367Z,14044.7
2023-05-02T11:51:54.368Z,13359.7
2023-05-02T11:53:54.389Z,12708.2
2023-05-02T11:56:01.206Z,11498.8
2023-05-02T11:57:57.985Z,11498.8
2023-05-02T11:59:54.406Z,14044.7
2023-05-02T12:01:54.388Z,15521.8
2023-05-02T12:04:00.856Z,14764.8
2023-05-02T12:05:57.624Z,15521.8
2023-05-02T12:07:54.329Z,14764.8
2023-05-02T12:09:54.443Z,12708.2
2023-05-02T12:11:54.527Z,14764.8
2023-05-02T12:13:54.373Z,14764.8
2023-05-02T12:15:57.586Z,14044.7
2023-05-02T12:17:54.367Z,10938
2023-05-02T12:19:54.445Z,13359.7
2023-05-02T12:21:57.460Z,12708.2
2023-05-02T12:23:54.328Z,9897.1
2023-05-02T12:25:54.429Z,9414.4
2023-05-02T12:27:54.338Z,8518.5
2023-05-02T12:29:54.373Z,9414.4
2023-05-02T12:31:54.426Z,12088.4
2023-05-02T12:33:54.384Z,12708.2
2023-05-02T12:35:57.540Z,9897.1
2023-05-02T12:38:01.397Z,9414.4
2023-05-02T12:39:57.491Z,8955.3
2023-05-02T12:41:54.329Z,9414.4
2023-05-02T12:43:57.563Z,8955.3
2023-05-02T12:45:54.377Z,8518.5
2023-05-02T12:47:54.401Z,11498.8
2023-05-02T12:49:57.650Z,11498.8
2023-05-02T12:51:57.932Z,10938
2023-05-02T12:53:54.361Z,10938
2023-05-02T12:55:54.432Z,10938
2023-05-02T12:57:54.394Z,11498.8
2023-05-02T12:59:54.473Z,8955.3
2023-05-02T13:01:54.404Z,8955.3
2023-05-02T13:03:54.437Z,8518.5
2023-05-02T13:05:54.472Z,8518.5
2023-05-02T13:07:57.577Z,8518.5
2023-05-02T13:09:54.435Z,10938
2023-05-02T13:11:57.585Z,11498.8
2023-05-02T13:13:57.544Z,11498.8
2023-05-02T13:15:54.399Z,8955.3
2023-05-02T13:17:54.383Z,9897.1
2023-05-02T13:23:57.523Z,7332
2023-05-02T13:25:54.380Z,6634.2
2023-05-02T13:27:54.403Z,6634.2
2023-05-02T13:29:54.416Z,6002.9
2023-05-02T13:31:54.600Z,5431.7
2023-05-02T13:33:54.406Z,4675.1
2023-05-02T13:35:54.382Z,4447.1
2023-05-02T13:37:54.537Z,4675.1
2023-05-02T13:39:54.369Z,7707.9
2023-05-02T13:41:54.404Z,8955.3
2023-05-02T13:43:57.608Z,10404.6
2023-05-02T13:45:57.506Z,7707.9
2023-05-02T13:47:58.050Z,10404.6
2023-05-02T13:49:57.574Z,7707.9
2023-05-02T13:51:54.392Z,6974.4
2023-05-02T13:55:54.362Z,6310.7
2023-05-02T13:57:54.372Z,6310.7
2023-05-02T13:59:54.385Z,6310.7
2023-05-02T14:01:58.069Z,6974.4
2023-05-02T14:03:54.612Z,6634.2
2023-05-02T14:05:54.331Z,8955.3
2023-05-02T14:07:57.535Z,5710.1
2023-05-02T14:09:58.031Z,4675.1
2023-05-02T14:11:54.399Z,5166.8
2023-05-02T14:13:54.377Z,4675.1
2023-05-02T14:15:54.483Z,4675.1
2023-05-02T14:17:54.422Z,4675.1
2023-05-02T14:20:01.515Z,4023.9
2023-05-02T14:21:54.419Z,3827.6
2023-05-02T14:23:54.361Z,3294.5
2023-05-02T14:25:54.486Z,2440.6
2023-05-02T14:27:54.443Z,1808
2023-05-02T14:30:01.465Z,1480.3
2023-05-02T14:31:54.483Z,1480.3
2023-05-02T14:33:54.345Z,1556.2
2023-05-02T14:35:54.375Z,1636
2023-05-02T14:37:57.999Z,1636
2023-05-02T14:39:55.098Z,1719.9
2023-05-02T14:41:54.391Z,1998.2
2023-05-02T14:43:54.366Z,2208.3
2023-05-02T14:45:54.396Z,2321.6
2023-05-02T14:48:01.137Z,2321.6
2023-05-02T14:50:01.449Z,2321.6
2023-05-02T14:51:56.257Z,2565.7
2023-05-02T14:54:01.348Z,4230.2
2023-05-02T14:55:54.384Z,5710.1
2023-05-02T14:59:54.380Z,5710.1
2023-05-02T15:01:57.484Z,7332
2023-05-02T15:04:05.740Z,7707.9
2023-05-02T15:05:54.466Z,8103.1
2023-05-02T15:07:54.420Z,8518.5
2023-05-02T15:09:57.580Z,8518.5
2023-05-02T15:11:57.997Z,8518.5
2023-05-02T15:13:55.877Z,8518.5
2023-05-02T15:15:54.386Z,8518.5
2023-05-02T15:17:54.502Z,7332
2023-05-02T15:19:55.917Z,8103.1
2023-05-02T15:21:54.500Z,7707.9
2023-05-02T15:23:54.361Z,6634.2
2023-05-02T15:25:54.701Z,7707.9
2023-05-02T15:27:54.429Z,7332
2023-05-02T15:29:54.416Z,7332
2023-05-02T15:31:54.457Z,6974.4
2023-05-02T15:33:54.444Z,6634.2
2023-05-02T15:35:54.402Z,6634.2
2023-05-02T15:37:58.029Z,6310.7
2023-05-02T15:39:54.449Z,6310.7
2023-05-02T15:41:54.405Z,5710.1
2023-05-02T15:43:54.383Z,5710.1
2023-05-02T15:45:54.483Z,5710.1
2023-05-02T15:47:54.403Z,5166.8
2023-05-02T15:50:01.390Z,5166.8
2023-05-02T15:51:58.062Z,5166.8
2023-05-02T15:53:57.494Z,5166.8
2023-05-02T15:55:54.698Z,5166.8
2023-05-02T15:57:54.404Z,5166.8
2023-05-02T15:59:54.437Z,5166.8
2023-05-02T16:01:54.443Z,4675.1
2023-05-02T16:03:57.620Z,4675.1
2023-05-02T16:05:54.510Z,4675.1
2023-05-02T16:07:54.375Z,4675.1
2023-05-02T16:10:01.232Z,4675.1
2023-05-02T16:11:54.549Z,4914.8
2023-05-02T16:13:57.545Z,4914.8
2023-05-02T16:15:54.408Z,4914.8
2023-05-02T16:17:54.444Z,5166.8
2023-05-02T16:19:54.412Z,5166.8
2023-05-02T16:21:54.443Z,5166.8
2023-05-02T16:23:54.372Z,4914.8
2023-05-02T16:25:54.376Z,4675.1
2023-05-02T16:27:54.475Z,4675.1
2023-05-02T16:29:54.379Z,4675.1
2023-05-02T16:31:54.509Z,4675.1
2023-05-02T16:33:54.444Z,4675.1
2023-05-02T16:35:58.049Z,4675.1
2023-05-02T16:37:57.553Z,4023.9
2023-05-02T16:39:54.383Z,4023.9
2023-05-02T16:41:57.728Z,4230.2
2023-05-02T16:43:54.601Z,4230.2
2023-05-02T16:45:54.388Z,4023.9
2023-05-02T16:47:58.039Z,3463.4
2023-05-02T16:49:57.505Z,3133.8
2023-05-02T16:51:57.525Z,2981
2023-05-02T16:53:58.044Z,2697.3
2023-05-02T16:55:54.478Z,2565.7
2023-05-02T16:57:57.548Z,1998.2
2023-05-02T16:59:58.059Z,1636
2023-05-02T17:01:54.369Z,1408.1
2023-05-02T17:03:54.456Z,1212
2023-05-02T17:05:54.496Z,1096.6
2023-05-02T17:07:54.356Z,992.3
2023-05-02T17:09:54.480Z,943.9
2023-05-02T17:11:54.434Z,812.4
2023-05-02T17:13:54.351Z,699.2
2023-05-02T17:15:54.367Z,632.7
2023-05-02T17:17:54.380Z,601.8
2023-05-02T17:19:54.462Z,544.6
2023-05-02T17:21:54.388Z,492.7
2023-05-02T17:23:54.402Z,424.1
2023-05-02T17:25:54.539Z,365
2023-05-02T17:27:54.350Z,330.3
2023-05-02T17:31:54.487Z,314.2
2023-05-02T17:33:57.981Z,314.2
2023-05-02T17:35:57.961Z,314.2
2023-05-02T17:37:54.370Z,314.2
2023-05-02T17:39:54.419Z,314.2
2023-05-02T17:41:54.371Z,298.9
2023-05-02T17:43:54.428Z,270.4
2023-05-02T17:45:54.449Z,257.2
2023-05-02T17:47:54.466Z,232.8
2023-05-02T17:49:54.386Z,232.8
2023-05-02T17:51:54.406Z,221.4
2023-05-02T17:53:57.558Z,210.6
2023-05-02T17:55:57.661Z,200.3
2023-05-02T17:57:54.357Z,181.3
2023-05-02T17:59:54.368Z,172.4
2023-05-02T18:01:54.459Z,156
2023-05-02T18:05:57.491Z,127.7
2023-05-02T18:07:54.467Z,109.9
2023-05-02T18:09:54.603Z,99.5
2023-05-02T18:11:57.612Z,90
2023-05-02T18:13:54.415Z,81.5
2023-05-02T18:15:57.587Z,73.7
2023-05-02T18:17:54.411Z,70.1
2023-05-02T18:19:54.442Z,63.4
2023-05-02T18:21:54.381Z,60.3
2023-05-02T18:23:54.395Z,54.6
2023-05-02T18:25:58.095Z,47
2023-05-02T18:27:54.419Z,40.4
2023-05-02T18:29:54.467Z,34.8
2023-05-02T18:31:54.430Z,30
2023-05-02T18:33:57.982Z,24.5
2023-05-02T18:35:54.567Z,20.1
2023-05-02T18:37:57.532Z,16.4
2023-05-02T18:39:54.394Z,13.5
2023-05-02T18:41:54.411Z,11
2023-05-02T18:43:54.382Z,8.6
2023-05-02T18:45:54.365Z,6.4
2023-05-02T18:47:57.565Z,4.7
2023-05-02T18:49:54.499Z,3.7
2023-05-02T18:51:54.421Z,3
2023-05-02T18:53:57.624Z,2.3
2023-05-02T18:55:54.390Z,1.8
2023-05-02T18:57:54.412Z,1.3
2023-05-02T18:59:54.481Z,1
2023-05-02T19:01:54.393Z,0.8
2023-05-02T19:03:54.521Z,0.6
2023-05-02T19:05:54.417Z,0.4
2023-05-02T19:07:57.969Z,0.3
2023-05-02T19:09:57.545Z,0.2
2023-05-02T19:11:54.565Z,0.2
2023-05-02T19:13:54.373Z,0.1
2023-05-02T19:15:54.414Z,0.1
2023-05-02T19:17:58.111Z,0.1
2023-05-02T19:19:55.615Z,0
2023-05-02T19:21:54.401Z,0
2023-05-02T19:23:57.941Z,0
2023-05-02T19:25:57.551Z,0
2023-05-02T19:27:54.382Z,0
2023-05-02T19:29:54.444Z,0
2023-05-02T19:31:57.692Z,0
2023-05-02T19:33:54.405Z,0
2023-05-02T19:35:57.600Z,0
2023-05-02T19:37:54.403Z,0
2023-05-02T19:40:01.288Z,0
2023-05-02T19:41:54.515Z,0
2023-05-02T19:43:54.424Z,0
2023-05-02T19:45:55.477Z,0
2023-05-02T19:47:54.607Z,0
2023-05-02T19:49:54.408Z,0
2023-05-02T19:51:54.491Z,0
2023-05-02T19:53:54.506Z,0
2023-05-02T19:55:54.635Z,0
2023-05-02T19:57:54.422Z,0
2023-05-02T20:00:01.616Z,0
2023-05-02T20:03:54.432Z,0
2023-05-02T20:05:54.433Z,0
2023-05-02T20:07:54.408Z,0
2023-05-02T20:10:01.506Z,0
2023-05-02T20:11:58.081Z,0
2023-05-02T20:13:54.420Z,0
2023-05-02T20:15:54.415Z,0
2023-05-02T20:17:54.382Z,0
2023-05-02T20:19:57.535Z,0
2023-05-02T20:21:57.561Z,0
2023-05-02T20:23:54.423Z,0
2023-05-02T20:25:57.985Z,0
2023-05-02T20:27:54.474Z,0
2023-05-02T20:29:57.526Z,0
2023-05-02T20:31:56.343Z,0
2023-05-02T20:33:54.413Z,0
2023-05-02T20:35:54.452Z,0
2023-05-02T20:37:54.383Z,0
2023-05-02T20:39:54.347Z,0
2023-05-02T20:41:54.433Z,0
2023-05-02T20:43:58.123Z,0
2023-05-02T20:45:54.374Z,0
2023-05-02T20:47:57.607Z,0
2023-05-02T20:50:01.737Z,0
2023-05-02T20:51:57.535Z,0
2023-05-02T20:53:57.506Z,0
2023-05-02T20:55:54.491Z,0
2023-05-02T20:58:01.164Z,0
2023-05-02T20:59:57.968Z,0
2023-05-02T21:01:54.536Z,0
2023-05-02T21:03:54.576Z,0
2023-05-02T21:05:54.422Z,0
2023-05-02T21:07:54.398Z,0
2023-05-02T21:09:54.402Z,0
2023-05-02T21:11:54.425Z,0
2023-05-02T21:13:57.992Z,0
2023-05-02T21:15:54.415Z,0
2023-05-02T21:17:54.441Z,0
2023-05-02T21:19:54.479Z,0
2023-05-02T21:21:57.576Z,0
2023-05-02T21:23:54.400Z,0
2023-05-02T21:25:54.385Z,0
2023-05-02T21:27:57.550Z,0
2023-05-02T21:29:57.542Z,0
2023-05-02T21:31:57.567Z,0
2023-05-02T21:33:54.365Z,0
2023-05-02T21:35:54.427Z,0
2023-05-02T21:37:54.418Z,0
2023-05-02T21:39:54.376Z,0
2023-05-02T21:41:54.420Z,0
2023-05-02T21:43:54.393Z,0
2023-05-02T21:45:54.524Z,0
2023-05-02T21:47:54.415Z,0
2023-05-02T21:49:54.456Z,0
2023-05-02T21:51:57.541Z,0
2023-05-02T21:53:58.041Z,0
2023-05-02T21:55:54.369Z,0
2023-05-02T21:57:54.449Z,0
2023-05-02T22:00:01.563Z,0
2023-05-02T22:01:54.460Z,0
2023-05-02T22:03:54.666Z,0
2023-05-02T22:05:54.426Z,0
2023-05-02T22:07:54.375Z,0
2023-05-02T22:09:54.427Z,0
2023-05-02T22:11:57.530Z,0
2023-05-02T22:13:54.429Z,0
2023-05-02T22:16:01.251Z,0
2023-05-02T22:17:54.449Z,0
2023-05-02T22:20:01.667Z,0
2023-05-02T22:23:54.380Z,0
2023-05-02T22:25:57.543Z,0
2023-05-02T22:27:57.985Z,0
2023-05-02T22:29:54.388Z,0
2023-05-02T22:31:58.157Z,0
2023-05-02T22:33:54.408Z,0
2023-05-02T22:35:54.465Z,0
2023-05-02T22:39:54.400Z,0
2023-05-02T22:41:57.546Z,0
2023-05-02T22:43:54.456Z,0
2023-05-02T22:45:54.506Z,0
2023-05-02T22:47:57.630Z,0
2023-05-02T22:49:58.028Z,1
2023-05-02T22:51:54.356Z,1
2023-05-02T22:53:58.028Z,1
2023-05-02T22:55:58.019Z,1
2023-05-02T22:57:54.375Z,1
2023-05-02T23:00:01.494Z,1
2023-05-02T23:03:54.443Z,1
2023-05-02T23:05:54.485Z,1
2023-05-02T23:07:54.398Z,1
2023-05-02T23:09:54.394Z,0
2023-05-02T23:11:54.403Z,0
2023-05-02T23:14:01.321Z,0
2023-05-02T23:15:57.555Z,0
2023-05-02T23:19:54.414Z,0
2023-05-02T23:21:54.442Z,0
2023-05-02T23:23:54.405Z,0
2023-05-02T23:25:54.449Z,0
2023-05-02T23:27:54.387Z,0
2023-05-02T23:29:54.469Z,0
2023-05-02T23:31:54.619Z,0
2023-05-02T23:33:54.363Z,0
2023-05-02T23:35:57.701Z,0
2023-05-02T23:37:54.407Z,0
2023-05-02T23:39:54.426Z,0
2023-05-02T23:41:57.577Z,0
2023-05-02T23:43:54.464Z,0
2023-05-02T23:45:58.133Z,0
2023-05-02T23:47:54.462Z,0
2023-05-02T23:51:54.390Z,0
2023-05-02T23:53:54.439Z,0
2023-05-02T23:55:54.401Z,0
2023-05-02T23:57:57.572Z,0
